createdAt,value
2023-03-24T00:01:56.263Z,18.65
2023-03-24T00:04:25.129Z,18.40
2023-03-24T00:06:52.576Z,18.00
2023-03-24T00:09:19.913Z,17.10
2023-03-24T00:11:47.273Z,19.80
2023-03-24T00:14:14.149Z,20.25
2023-03-24T00:16:43.132Z,18.67
2023-03-24T00:19:13.586Z,19.00
2023-03-24T00:21:42.135Z,18.20
2023-03-24T00:24:10.086Z,18.63
2023-03-24T00:26:39.177Z,20.30
2023-03-24T00:29:08.067Z,20.25
2023-03-24T00:31:40.125Z,18.58
2023-03-24T00:34:08.962Z,20.42
2023-03-24T00:36:36.883Z,19.88
2023-03-24T00:39:06.369Z,19.13
2023-03-24T00:41:33.811Z,20.10
2023-03-24T00:44:03.604Z,18.45
2023-03-24T00:46:30.780Z,18.20
2023-03-24T00:49:05.887Z,19.17
2023-03-24T00:51:38.814Z,21.25
2023-03-24T00:54:09.435Z,19.85
2023-03-24T00:56:40.691Z,18.63
2023-03-24T00:59:10.258Z,17.85
2023-03-24T01:01:41.169Z,18.67
2023-03-24T01:04:08.595Z,18.42
2023-03-24T01:06:39.432Z,21.13
2023-03-24T01:09:07.443Z,19.70
2023-03-24T01:11:40.334Z,19.90
2023-03-24T01:14:08.799Z,21.20
2023-03-24T01:16:36.352Z,20.95
2023-03-24T01:19:04.337Z,21.30
2023-03-24T01:21:31.867Z,22.05
2023-03-24T01:23:58.744Z,21.05
2023-03-24T01:26:25.532Z,19.88
2023-03-24T01:28:52.365Z,19.77
2023-03-24T01:31:19.357Z,23.73
2023-03-24T01:33:46.243Z,20.27
2023-03-24T01:36:13.168Z,21.23
2023-03-24T01:38:40.145Z,21.25
2023-03-24T01:41:07.464Z,22.17
2023-03-24T01:43:35.992Z,23.30
2023-03-24T01:46:18.776Z,22.33
2023-03-24T01:48:55.304Z,21.50
2023-03-24T01:51:35.667Z,23.35
2023-03-24T01:54:18.670Z,19.60
2023-03-24T01:56:57.057Z,20.27
2023-03-24T01:59:27.444Z,18.58
2023-03-24T02:02:03.006Z,21.27
2023-03-24T02:04:34.660Z,19.92
2023-03-24T02:07:28.496Z,21.80
2023-03-24T02:09:55.465Z,22.48
2023-03-24T02:12:22.358Z,22.45
2023-03-24T02:14:50.025Z,20.77
2023-03-24T02:17:48.633Z,20.63
2023-03-24T02:20:40.307Z,19.73
2023-03-24T02:23:32.047Z,23.88
2023-03-24T02:26:20.908Z,20.77
2023-03-24T02:29:27.849Z,19.42
2023-03-24T02:32:22.971Z,22.83
2023-03-24T02:35:12.654Z,19.63
2023-03-24T02:38:24.001Z,19.45
2023-03-24T02:41:05.082Z,21.05
2023-03-24T02:43:39.760Z,21.38
2023-03-24T02:46:23.843Z,19.45
2023-03-24T02:49:16.358Z,20.38
2023-03-24T02:51:50.366Z,19.20
2023-03-24T02:54:56.312Z,19.63
2023-03-24T02:57:36.226Z,19.67
2023-03-24T03:00:21.440Z,20.85
2023-03-24T03:02:56.120Z,20.77
2023-03-24T03:05:34.584Z,20.42
2023-03-24T03:08:06.123Z,20.42
2023-03-24T03:10:39.276Z,20.48
2023-03-24T03:13:14.770Z,21.85
2023-03-24T03:15:46.583Z,21.50
2023-03-24T03:19:00.036Z,19.38
2023-03-24T03:21:32.781Z,21.50
2023-03-24T03:24:07.138Z,21.30
2023-03-24T03:26:34.693Z,21.13
2023-03-24T03:29:19.053Z,22.77
2023-03-24T03:32:07.990Z,20.95
2023-03-24T03:34:37.929Z,21.55
2023-03-24T03:37:22.744Z,21.63
2023-03-24T03:39:58.920Z,21.05
2023-03-24T03:42:25.926Z,22.13
2023-03-24T03:44:53.406Z,24.27
2023-03-24T03:47:23.072Z,21.73
2023-03-24T03:49:51.058Z,22.77
2023-03-24T03:52:18.416Z,21.80
2023-03-24T03:54:45.790Z,22.05
2023-03-24T03:57:13.883Z,24.15
2023-03-24T03:59:41.050Z,24.58
2023-03-24T04:02:13.834Z,25.55
2023-03-24T04:05:03.230Z,25.15
2023-03-24T04:10:25.096Z,22.55
2023-03-24T04:13:15.740Z,26.73
2023-03-24T04:15:58.624Z,23.05
2023-03-24T04:18:47.249Z,25.02
2023-03-24T04:21:33.652Z,23.63
2023-03-24T04:24:06.746Z,25.38
2023-03-24T04:26:36.231Z,25.15
2023-03-24T04:29:09.220Z,27.23
2023-03-24T04:31:49.378Z,30.55
2023-03-24T04:34:29.351Z,31.50
2023-03-24T04:37:08.342Z,30.67
2023-03-24T04:39:39.273Z,31.38
2023-03-24T04:42:10.616Z,31.85
2023-03-24T04:44:37.770Z,33.10
2023-03-24T04:47:05.948Z,29.60
2023-03-24T04:49:32.732Z,34.38
2023-03-24T04:51:59.553Z,35.25
2023-03-24T04:54:29.866Z,33.28
2023-03-24T04:57:02.003Z,34.08
2023-03-24T04:59:30.505Z,33.92
2023-03-24T05:01:57.464Z,37.47
2023-03-24T05:04:26.181Z,35.13
2023-03-24T05:06:53.125Z,36.08
2023-03-24T05:09:21.895Z,35.33
2023-03-24T05:11:49.679Z,37.22
2023-03-24T05:14:17.101Z,39.33
2023-03-24T05:16:44.042Z,38.70
2023-03-24T05:19:11.104Z,39.40
2023-03-24T05:21:38.274Z,41.22
2023-03-24T05:24:06.836Z,40.60
2023-03-24T05:26:34.098Z,39.30
2023-03-24T05:29:01.023Z,43.00
2023-03-24T05:31:27.949Z,49.92
2023-03-24T05:33:55.664Z,47.95
2023-03-24T05:36:22.516Z,50.47
2023-03-24T05:38:49.484Z,53.90
2023-03-24T05:41:16.295Z,48.75
2023-03-24T05:43:43.119Z,54.15
2023-03-24T05:46:10.036Z,61.65
2023-03-24T05:48:36.760Z,55.15
2023-03-24T05:51:03.687Z,55.95
2023-03-24T05:53:31.164Z,57.15
2023-03-24T05:55:58.737Z,74.05
2023-03-24T05:58:25.810Z,57.92
2023-03-24T06:00:54.590Z,67.25
2023-03-24T06:03:21.636Z,58.83
2023-03-24T06:05:49.451Z,70.93
2023-03-24T06:08:17.306Z,66.28
2023-03-24T06:10:44.432Z,63.00
2023-03-24T06:13:11.404Z,75.35
2023-03-24T06:15:42.883Z,69.82
2023-03-24T06:18:09.993Z,77.90
2023-03-24T06:20:36.991Z,61.97
2023-03-24T06:23:03.887Z,64.20
2023-03-24T06:25:30.708Z,98.65
2023-03-24T06:28:04.044Z,70.40
2023-03-24T06:30:31.073Z,92.55
2023-03-24T06:32:58.362Z,83.35
2023-03-24T06:35:25.247Z,72.50
2023-03-24T06:37:52.141Z,90.07
2023-03-24T06:40:19.786Z,76.88
2023-03-24T06:42:46.642Z,90.35
2023-03-24T06:45:13.467Z,112.15
2023-03-24T06:47:40.831Z,80.10
2023-03-24T06:50:08.058Z,95.95
2023-03-24T06:52:35.743Z,129.13
2023-03-24T06:55:03.036Z,87.97
2023-03-24T06:57:30.406Z,119.47
2023-03-24T06:59:57.293Z,94.32
2023-03-24T07:02:24.272Z,99.53
2023-03-24T07:04:54.162Z,99.45
2023-03-24T07:07:53.372Z,123.53
2023-03-24T07:10:09.695Z,72.25
2023-03-24T07:12:36.731Z,90.00
2023-03-24T07:15:04.674Z,86.03
2023-03-24T07:17:31.721Z,90.85
2023-03-24T07:19:58.829Z,61.40
2023-03-24T07:22:25.928Z,75.68
2023-03-24T07:24:54.102Z,68.53
2023-03-24T07:27:21.400Z,83.28
2023-03-24T07:29:48.382Z,82.82
2023-03-24T07:32:15.488Z,64.55
2023-03-24T07:34:43.984Z,75.05
2023-03-24T07:37:11.398Z,86.97
2023-03-24T07:39:38.421Z,71.03
2023-03-24T07:42:06.121Z,72.95
2023-03-24T07:44:33.086Z,60.30
2023-03-24T07:46:59.945Z,63.00
2023-03-24T07:49:27.330Z,53.60
2023-03-24T07:51:54.264Z,53.63
2023-03-24T07:54:21.790Z,51.00
2023-03-24T07:56:48.865Z,66.03
2023-03-24T07:59:17.339Z,52.40
2023-03-24T08:01:44.603Z,72.32
2023-03-24T08:04:14.247Z,57.58
2023-03-24T08:06:44.190Z,59.10
2023-03-24T08:09:11.962Z,44.67
2023-03-24T08:11:39.405Z,66.20
2023-03-24T08:14:06.552Z,38.75
2023-03-24T08:16:33.556Z,64.38
2023-03-24T08:19:00.647Z,47.88
2023-03-24T08:21:27.686Z,36.45
2023-03-24T08:23:54.547Z,41.75
2023-03-24T08:26:22.671Z,42.70
2023-03-24T08:28:49.715Z,47.25
2023-03-24T08:31:16.709Z,36.20
2023-03-24T08:33:43.751Z,36.15
2023-03-24T08:36:10.882Z,36.33
2023-03-24T08:38:39.004Z,46.00
2023-03-24T08:41:07.246Z,33.63
2023-03-24T08:43:36.283Z,37.80
2023-03-24T08:46:03.521Z,32.55
2023-03-24T08:48:31.140Z,38.70
2023-03-24T08:50:57.969Z,36.03
2023-03-24T08:53:24.811Z,29.90
2023-03-24T08:58:31.966Z,42.58
2023-03-24T09:00:58.864Z,31.30
2023-03-24T09:03:26.352Z,26.15
2023-03-24T09:05:59.794Z,25.27
2023-03-24T09:08:28.181Z,24.48
2023-03-24T09:10:55.026Z,24.42
2023-03-24T09:13:22.242Z,27.58
2023-03-24T09:15:54.736Z,23.27
2023-03-24T09:18:22.276Z,23.15
2023-03-24T09:20:50.397Z,24.15
2023-03-24T09:23:17.605Z,21.70
2023-03-24T09:25:44.878Z,20.40
2023-03-24T09:28:12.043Z,20.35
2023-03-24T09:30:38.903Z,19.58
2023-03-24T09:33:06.343Z,21.65
2023-03-24T09:35:33.373Z,21.75
2023-03-24T09:38:00.557Z,20.40
2023-03-24T09:40:33.252Z,21.60
2023-03-24T09:43:24.146Z,22.40
2023-03-24T09:45:54.705Z,19.48
2023-03-24T09:48:47.211Z,21.05
2023-03-24T09:51:22.772Z,21.48
2023-03-24T09:54:04.850Z,18.08
2023-03-24T09:59:06.200Z,19.23
2023-03-24T10:01:36.209Z,18.35
2023-03-24T10:04:05.108Z,16.95
2023-03-24T10:06:41.844Z,19.10
2023-03-24T10:09:28.570Z,17.65
2023-03-24T10:12:26.309Z,18.70
2023-03-24T10:15:09.596Z,17.58
2023-03-24T10:17:58.249Z,19.40
2023-03-24T10:20:38.333Z,19.75
2023-03-24T10:23:29.678Z,19.70
2023-03-24T10:26:28.517Z,18.30
2023-03-24T10:29:22.609Z,19.25
2023-03-24T10:31:58.039Z,18.15
2023-03-24T10:34:30.479Z,18.55
2023-03-24T10:36:59.615Z,19.58
2023-03-24T10:39:37.871Z,20.88
2023-03-24T10:42:21.816Z,18.13
2023-03-24T10:44:51.320Z,17.67
2023-03-24T10:47:32.545Z,16.77
2023-03-24T10:50:12.752Z,17.70
2023-03-24T10:52:45.484Z,16.60
2023-03-24T10:55:19.341Z,17.65
2023-03-24T10:57:56.890Z,15.63
2023-03-24T11:00:32.305Z,15.60
2023-03-24T11:03:21.478Z,15.15
2023-03-24T11:05:48.764Z,17.42
2023-03-24T11:08:34.076Z,15.23
2023-03-24T11:11:00.952Z,15.05
2023-03-24T11:13:32.452Z,14.25
2023-03-24T11:16:14.350Z,15.43
2023-03-24T11:18:59.227Z,15.68
2023-03-24T11:21:28.658Z,15.88
2023-03-24T11:23:59.695Z,14.57
2023-03-24T11:26:35.926Z,16.10
2023-03-24T11:29:22.340Z,13.82
2023-03-24T11:31:58.525Z,13.52
2023-03-24T11:34:46.422Z,11.88
2023-03-24T11:37:29.614Z,11.10
2023-03-24T11:40:07.186Z,13.40
2023-03-24T11:42:34.128Z,12.32
2023-03-24T11:45:03.848Z,11.88
2023-03-24T11:47:33.263Z,13.10
2023-03-24T11:50:12.237Z,13.25
2023-03-24T11:52:55.054Z,13.27
2023-03-24T11:55:51.033Z,14.38
2023-03-24T11:58:40.563Z,15.20
2023-03-24T12:01:33.439Z,14.38
2023-03-24T12:04:29.420Z,18.88
2023-03-24T12:07:08.025Z,12.25
2023-03-24T12:09:53.688Z,13.43
2023-03-24T12:12:44.785Z,12.52
2023-03-24T12:15:28.965Z,17.30
2023-03-24T12:18:25.472Z,15.10
2023-03-24T12:21:37.548Z,13.75
2023-03-24T12:24:10.071Z,12.98
2023-03-24T12:26:39.292Z,13.50
2023-03-24T12:29:06.336Z,14.35
2023-03-24T12:31:36.038Z,15.05
2023-03-24T12:34:27.827Z,11.38
2023-03-24T12:37:14.695Z,13.95
2023-03-24T12:40:19.561Z,16.52
2023-03-24T12:42:47.052Z,14.25
2023-03-24T12:45:29.130Z,14.27
2023-03-24T12:48:05.095Z,9.18
2023-03-24T12:50:34.700Z,9.63
2023-03-24T12:53:34.574Z,12.60
2023-03-24T12:56:10.103Z,11.13
2023-03-24T12:58:39.861Z,13.73
2023-03-24T13:01:35.051Z,10.05
2023-03-24T13:04:01.944Z,12.27
2023-03-24T13:06:47.407Z,10.05
2023-03-24T13:09:40.265Z,8.23
2023-03-24T13:12:30.362Z,12.43
2023-03-24T13:15:12.410Z,11.63
2023-03-24T13:18:10.422Z,10.05
2023-03-24T13:20:54.429Z,10.65
2023-03-24T13:23:46.248Z,9.93
2023-03-24T13:26:36.763Z,14.98
2023-03-24T13:29:03.894Z,12.38
2023-03-24T13:31:54.088Z,10.57
2023-03-24T13:34:28.748Z,10.00
2023-03-24T13:37:02.691Z,11.20
2023-03-24T13:39:31.466Z,10.43
2023-03-24T13:41:59.496Z,8.30
2023-03-24T13:44:49.792Z,10.23
2023-03-24T13:47:18.410Z,8.93
2023-03-24T13:50:13.476Z,11.10
2023-03-24T13:52:46.758Z,9.48
2023-03-24T13:55:26.187Z,10.60
2023-03-24T13:58:13.212Z,8.00
2023-03-24T14:01:05.492Z,9.25
2023-03-24T14:06:07.568Z,12.27
2023-03-24T14:08:43.682Z,9.40
2023-03-24T14:11:41.452Z,10.38
2023-03-24T14:14:20.308Z,10.75
2023-03-24T14:17:05.318Z,8.38
2023-03-24T14:19:39.428Z,6.97
2023-03-24T14:22:11.937Z,6.00
2023-03-24T14:24:40.431Z,8.70
2023-03-24T14:27:35.056Z,8.70
2023-03-24T14:30:11.290Z,8.52
2023-03-24T14:32:46.562Z,8.73
2023-03-24T14:35:34.482Z,8.57
2023-03-24T14:38:16.376Z,8.05
2023-03-24T14:40:52.779Z,9.02
2023-03-24T14:43:26.051Z,7.40
2023-03-24T14:46:13.584Z,6.28
2023-03-24T14:48:51.655Z,10.15
2023-03-24T14:51:29.001Z,7.50
2023-03-24T14:53:59.574Z,6.00
2023-03-24T14:56:35.039Z,12.88
2023-03-24T14:59:08.724Z,9.65
2023-03-24T15:01:36.195Z,9.98
2023-03-24T15:04:07.190Z,7.30
2023-03-24T15:06:44.720Z,9.85
2023-03-24T15:09:11.652Z,7.28
2023-03-24T15:11:40.556Z,8.18
2023-03-24T15:14:22.795Z,7.10
2023-03-24T15:17:03.049Z,8.60
2023-03-24T15:19:31.472Z,8.93
2023-03-24T15:22:11.706Z,7.53
2023-03-24T15:24:42.321Z,8.30
2023-03-24T15:27:15.570Z,8.13
2023-03-24T15:29:44.233Z,8.63
2023-03-24T15:32:19.248Z,9.00
2023-03-24T15:34:52.063Z,8.07
2023-03-24T15:37:34.919Z,6.90
2023-03-24T15:40:15.109Z,9.60
2023-03-24T15:42:46.270Z,8.77
2023-03-24T15:45:28.865Z,9.43
2023-03-24T15:47:56.954Z,8.68
2023-03-24T15:50:34.519Z,9.35
2023-03-24T15:53:19.586Z,9.05
2023-03-24T15:55:46.480Z,7.53
2023-03-24T15:58:28.523Z,10.30
2023-03-24T16:03:26.563Z,8.35
2023-03-24T16:05:56.150Z,9.10
2023-03-24T16:08:31.698Z,10.27
2023-03-24T16:11:01.529Z,6.88
2023-03-24T16:13:28.726Z,9.40
2023-03-24T16:16:00.125Z,10.88
2023-03-24T16:18:33.251Z,10.75
2023-03-24T16:21:13.628Z,8.80
2023-03-24T16:23:42.416Z,8.93
2023-03-24T16:26:27.417Z,13.40
2023-03-24T16:28:57.007Z,10.48
2023-03-24T16:31:30.720Z,10.02
2023-03-24T16:33:58.269Z,12.80
2023-03-24T16:36:28.459Z,10.30
2023-03-24T16:38:57.798Z,11.30
2023-03-24T16:41:25.510Z,9.73
2023-03-24T16:43:53.295Z,7.55
2023-03-24T16:46:26.407Z,7.10
2023-03-24T16:48:53.750Z,8.07
2023-03-24T16:51:20.636Z,8.23
2023-03-24T16:53:48.126Z,7.35
2023-03-24T16:56:18.065Z,9.55
2023-03-24T16:58:48.057Z,6.22
2023-03-24T17:01:39.727Z,6.53
2023-03-24T17:04:16.346Z,4.40
2023-03-24T17:06:53.532Z,4.45
2023-03-24T17:09:21.032Z,6.47
2023-03-24T17:11:51.578Z,4.72
2023-03-24T17:14:18.734Z,4.35
2023-03-24T17:16:49.162Z,7.10
2023-03-24T17:19:18.946Z,9.35
2023-03-24T17:22:11.236Z,9.48
